Time;durP1;ratioP1;P1;durP2;ratioP2;P2;SDS_P1;SDS_P2;PMS_P1;PMS_P2;Temp;Humidity;BMP_temperature;BMP_pressure;BME280_temperature;BME280_humidity;BME280_pressure;Samples;Min_cycle;Max_cycle;Signal;HPM_P1;HPM_P2
2023/08/26 00:02:08;;;;;;;;;2.25;1.00;;;;;24.55;38.07;100797.97;4938945;28;45458;-40
2023/08/26 00:04:33;;;;;;;;;1.50;0.50;;;;;24.54;38.10;100794.47;4939084;28;47125;-38
2023/08/26 00:07:00;;;;;;;;;2.00;0.75;;;;;24.52;38.43;100791.09;4938941;28;45469;-47
2023/08/26 00:09:25;;;;;;;;;0.00;0.00;;;;;24.53;38.28;100794.56;4938988;28;45334;-44
2023/08/26 00:11:50;;;;;;;;;1.25;1.00;;;;;24.53;38.03;100794.56;4939150;28;45465;-42
2023/08/26 00:14:16;;;;;;;;;2.00;0.00;;;;;24.51;38.44;100786.75;4938644;28;46145;-44
2023/08/26 00:16:41;;;;;;;;;2.00;1.00;;;;;24.53;37.90;100792.78;4921530;28;45398;-45
2023/08/26 00:19:06;;;;;;;;;2.00;1.00;;;;;24.50;38.00;100787.72;4938285;28;63307;-40
2023/08/26 00:21:31;;;;;;;;;0.50;0.00;;;;;24.51;38.25;100786.75;4939413;28;45416;-43
2023/08/26 00:23:58;;;;;;;;;0.00;0.00;;;;;24.49;38.26;100787.84;4938437;28;46261;-49
2023/08/26 00:26:24;;;;;;;;;0.75;0.75;;;;;24.47;38.02;100782.66;4937870;28;45359;-48
2023/08/26 00:28:49;;;;;;;;;1.00;1.00;;;;;24.46;37.88;100783.59;4938591;28;45255;-49
2023/08/26 00:31:14;;;;;;;;;1.00;1.00;;;;;24.47;37.86;100782.66;4938901;28;45333;-42
2023/08/26 00:33:40;;;;;;;;;2.00;1.00;;;;;24.47;38.12;100784.44;4938236;28;45982;-41
2023/08/26 00:36:05;;;;;;;;;0.00;0.00;;;;;24.47;37.90;100779.16;4938721;28;45440;-42
2023/08/26 00:38:30;;;;;;;;;1.00;1.00;;;;;24.46;37.77;100778.31;4938539;28;45302;-41
2023/08/26 00:40:56;;;;;;;;;1.00;1.00;;;;;24.46;38.35;100777.44;4938708;28;45589;-41
2023/08/26 00:43:21;;;;;;;;;0.50;0.50;;;;;24.45;38.14;100776.63;4938275;28;46458;-40
2023/08/26 00:45:49;;;;;;;;;0.75;0.75;;;;;24.45;38.26;100775.75;4938079;28;54248;-39
2023/08/26 00:48:15;;;;;;;;;1.00;1.00;;;;;24.45;37.88;100778.41;4938631;28;45588;-44
2023/08/26 00:50:47;;;;;;;;;1.25;0.75;;;;;24.44;38.02;100776.72;4938559;28;45460;-44
2023/08/26 00:53:15;;;;;;;;;0.00;0.00;;;;;24.42;37.60;100771.53;4938046;28;45246;-49
2023/08/26 00:55:41;;;;;;;;;1.75;1.00;;;;;24.42;37.73;100768.06;4938148;28;45736;-43
2023/08/26 00:58:06;;;;;;;;;1.00;1.00;;;;;24.41;38.16;100764.53;4938601;28;45386;-52
2023/08/26 01:00:36;;;;;;;;;0.00;0.00;;;;;24.40;38.46;100773.44;4938583;28;45334;-44
2023/08/26 01:03:04;;;;;;;;;0.00;0.00;;;;;24.42;38.49;100770.72;4937877;28;47159;-48
2023/08/26 01:05:30;;;;;;;;;2.00;1.00;;;;;24.42;37.79;100768.88;4938011;28;45344;-40
2023/08/26 01:07:56;;;;;;;;;0.00;0.00;;;;;24.39;38.31;100767.31;4938216;28;45337;-40
2023/08/26 01:10:31;;;;;;;;;0.50;0.50;;;;;24.35;37.66;100773.78;4938367;28;45320;-42
2023/08/26 01:13:10;;;;;;;;;1.00;1.00;;;;;24.35;38.38;100765.00;4938050;28;45395;-40
2023/08/26 01:15:40;;;;;;;;;1.75;0.00;;;;;24.35;38.51;100776.44;4938211;28;45222;-40
2023/08/26 01:18:08;;;;;;;;;1.75;0.50;;;;;24.35;37.73;100779.09;4938378;28;45435;-46
2023/08/26 01:20:34;;;;;;;;;0.00;0.00;;;;;24.32;38.16;100779.28;4938234;28;45645;-48
2023/08/26 01:23:05;;;;;;;;;1.25;1.00;;;;;24.29;38.42;100782.19;4937804;28;46517;-43
2023/08/26 01:25:30;;;;;;;;;1.00;1.00;;;;;24.28;38.00;100775.19;4937844;28;45393;-47
2023/08/26 01:27:57;;;;;;;;;1.00;1.00;;;;;24.28;38.35;100779.63;4937279;28;60113;-48
2023/08/26 01:30:26;;;;;;;;;0.25;0.25;;;;;24.19;38.34;100768.75;4938059;28;45482;-48
2023/08/26 01:33:04;;;;;;;;;1.00;1.00;;;;;24.20;37.79;100766.94;4937677;28;45358;-42
2023/08/26 01:35:40;;;;;;;;;0.00;0.00;;;;;24.17;38.10;100772.47;4937752;28;45513;-41
2023/08/26 01:38:08;;;;;;;;;1.00;0.50;;;;;24.17;38.52;100777.78;4940426;28;45410;-43
2023/08/26 01:40:34;;;;;;;;;0.50;0.50;;;;;24.16;38.00;100768.97;4941319;28;45443;-40
2023/08/26 01:43:00;;;;;;;;;1.00;1.00;;;;;24.16;38.14;100765.50;4940832;28;46467;-42
2023/08/26 01:45:26;;;;;;;;;1.50;1.00;;;;;24.17;37.75;100756.59;4940479;28;45216;-40
2023/08/26 01:47:51;;;;;;;;;0.00;0.00;;;;;24.16;37.87;100749.59;4941065;28;45327;-39
2023/08/26 01:50:16;;;;;;;;;0.00;0.00;;;;;24.16;38.12;100755.72;4941207;28;45630;-42
2023/08/26 01:52:42;;;;;;;;;1.00;1.00;;;;;24.13;38.31;100752.47;4940869;28;45235;-40
2023/08/26 01:55:08;;;;;;;;;2.25;0.75;;;;;24.15;37.66;100753.19;4941034;28;45314;-40
2023/08/26 01:57:33;;;;;;;;;0.00;0.00;;;;;24.13;38.35;100749.81;4940946;28;45218;-39
2023/08/26 01:59:58;;;;;;;;;0.25;0.00;;;;;24.14;37.82;100746.22;4941222;28;45425;-40
2023/08/26 02:02:24;;;;;;;;;0.25;0.25;;;;;24.14;38.14;100751.50;4940268;28;57479;-40
2023/08/26 02:04:49;;;;;;;;;1.00;0.00;;;;;24.11;38.03;100752.59;4940038;28;62792;-42
2023/08/26 02:07:14;;;;;;;;;0.00;0.00;;;;;24.07;38.38;100738.72;4940657;28;49615;-39
2023/08/26 02:09:40;;;;;;;;;0.00;0.00;;;;;24.06;38.11;100744.97;4923814;28;45533;-41
2023/08/26 02:12:06;;;;;;;;;0.00;0.00;;;;;24.05;38.34;100737.97;4940582;28;46034;-47
2023/08/26 02:14:31;;;;;;;;;1.00;1.00;;;;;24.05;38.38;100745.06;4940455;28;45711;-42
2023/08/26 02:16:56;;;;;;;;;0.50;0.50;;;;;24.04;38.10;100743.38;4940699;28;45633;-40
2023/08/26 02:19:22;;;;;;;;;0.00;0.00;;;;;24.01;38.26;100736.50;4940451;28;49487;-40
2023/08/26 02:21:47;;;;;;;;;0.25;0.25;;;;;23.98;38.35;100733.22;4940361;28;46310;-41
2023/08/26 02:24:12;;;;;;;;;1.00;1.00;;;;;23.92;38.72;100740.63;4940709;28;45349;-41
2023/08/26 02:26:37;;;;;;;;;0.00;0.00;;;;;23.92;38.69;100732.66;4940511;28;45353;-41
2023/08/26 02:29:03;;;;;;;;;0.25;0.25;;;;;23.91;38.73;100740.72;4940207;28;46689;-41
2023/08/26 02:31:29;;;;;;;;;0.00;0.00;;;;;23.93;38.49;100733.53;4940368;28;45808;-39
2023/08/26 02:33:54;;;;;;;;;4.75;0.50;;;;;23.93;38.88;100730.88;4940188;28;48049;-39
2023/08/26 02:36:19;;;;;;;;;1.25;1.00;;;;;23.91;38.27;100730.16;4940574;28;45598;-38
2023/08/26 02:38:45;;;;;;;;;0.00;0.00;;;;;23.86;38.50;100732.28;4940139;28;45520;-44
2023/08/26 02:41:10;;;;;;;;;0.50;0.50;;;;;23.85;39.11;100730.59;4940194;28;53087;-46
2023/08/26 02:43:35;;;;;;;;;1.25;1.00;;;;;23.80;38.68;100727.41;4939615;28;57430;-45
2023/08/26 02:46:01;;;;;;;;;0.75;0.75;;;;;23.74;39.16;100723.41;4923018;28;45624;-47
2023/08/26 02:48:27;;;;;;;;;1.00;1.00;;;;;23.70;38.70;100728.06;4939870;28;45306;-46
2023/08/26 02:51:00;;;;;;;;;0.75;0.00;;;;;23.70;39.06;100717.50;4939811;28;46315;-43
2023/08/26 02:53:26;;;;;;;;;0.00;0.00;;;;;23.71;39.38;100727.13;4940056;28;45711;-40
2023/08/26 02:55:53;;;;;;;;;0.00;0.00;;;;;23.73;39.04;100727.88;4940058;28;45274;-43
2023/08/26 02:58:19;;;;;;;;;1.00;1.00;;;;;23.72;38.99;100726.16;4940225;28;45519;-41
2023/08/26 03:00:45;;;;;;;;;0.75;0.00;;;;;23.69;39.49;100721.09;4940203;28;46891;-42
2023/08/26 03:03:10;;;;;;;;;1.00;1.00;;;;;23.71;39.18;100707.75;4939681;28;45397;-43
2023/08/26 03:05:35;;;;;;;;;1.00;1.00;;;;;23.71;39.06;100702.44;4939662;28;50001;-45
2023/08/26 03:08:01;;;;;;;;;1.00;1.00;;;;;23.70;39.69;100701.63;4940128;28;45408;-47
2023/08/26 03:10:26;;;;;;;;;1.00;1.00;;;;;23.71;39.67;100713.03;4939701;28;46437;-49
2023/08/26 03:12:54;;;;;;;;;0.25;0.25;;;;;23.69;39.39;100704.38;4939173;28;53950;-49
2023/08/26 03:15:19;;;;;;;;;1.00;0.25;;;;;23.70;39.79;100704.25;4922593;28;45435;-45
2023/08/26 03:17:44;;;;;;;;;1.00;1.00;;;;;23.70;39.33;100701.63;4939735;28;51135;-42
2023/08/26 03:20:10;;;;;;;;;0.00;0.00;;;;;23.71;39.79;100708.59;4939034;28;59290;-40
2023/08/26 03:22:35;;;;;;;;;1.50;1.50;;;;;23.70;39.75;100712.19;4939615;28;45267;-39
2023/08/26 03:25:00;;;;;;;;;1.00;1.00;;;;;23.69;39.69;100713.16;4939088;28;57816;-43
2023/08/26 03:27:26;;;;;;;;;2.00;2.00;;;;;23.66;40.09;100699.31;4939417;28;45301;-41
2023/08/26 03:29:51;;;;;;;;;1.00;1.00;;;;;23.68;39.91;100698.22;4938776;28;64003;-41
2023/08/26 03:32:16;;;;;;;;;1.00;1.00;;;;;23.65;39.84;100706.38;4939741;28;45208;-39
2023/08/26 03:34:42;;;;;;;;;0.75;0.75;;;;;23.59;39.64;100701.53;4938745;28;59410;-42
2023/08/26 03:37:08;;;;;;;;;0.25;0.25;;;;;23.59;39.94;100704.19;4939640;28;45739;-41
2023/08/26 03:39:34;;;;;;;;;1.00;1.00;;;;;23.54;39.84;100701.00;4938424;28;45384;-42
2023/08/26 03:41:59;;;;;;;;;3.00;1.00;;;;;23.53;40.18;100700.16;4939163;28;45174;-47
2023/08/26 03:44:24;;;;;;;;;1.00;1.00;;;;;23.52;40.21;100701.13;4938710;28;57818;-43
2023/08/26 03:46:49;;;;;;;;;1.00;1.00;;;;;23.51;39.69;100702.06;4939401;28;45670;-43
2023/08/26 03:49:15;;;;;;;;;2.25;1.00;;;;;23.52;39.77;100702.94;4939319;28;46106;-41
2023/08/26 03:51:40;;;;;;;;;1.00;1.00;;;;;23.50;39.98;100699.53;4938996;28;46448;-39
2023/08/26 03:54:06;;;;;;;;;1.75;1.75;;;;;23.49;40.50;100703.13;4921334;28;60196;-40
2023/08/26 03:56:31;;;;;;;;;1.00;1.00;;;;;23.47;40.21;100700.59;4939230;28;45657;-42
2023/08/26 03:58:57;;;;;;;;;1.00;1.00;;;;;23.44;40.26;100706.09;4938890;28;45381;-40
2023/08/26 04:01:23;;;;;;;;;1.00;1.00;;;;;23.43;40.85;100699.94;4937834;28;45391;-40
2023/08/26 04:03:52;;;;;;;;;2.00;2.00;;;;;23.42;40.76;100700.94;4921892;28;45426;-43
2023/08/26 04:06:18;;;;;;;;;1.00;1.00;;;;;23.40;41.00;100700.19;4939519;28;45537;-45
2023/08/26 04:08:45;;;;;;;;;1.00;1.00;;;;;23.38;40.51;100699.44;4938794;28;45291;-45
2023/08/26 04:11:10;;;;;;;;;1.00;1.00;;;;;23.38;40.81;100701.22;4938761;28;45385;-43
2023/08/26 04:13:35;;;;;;;;;1.50;1.00;;;;;23.40;41.07;100704.63;4938588;28;50073;-42
2023/08/26 04:16:03;;;;;;;;;1.25;1.25;;;;;23.41;41.09;100704.53;4938984;28;45475;-40
2023/08/26 04:18:29;;;;;;;;;2.00;2.00;;;;;23.43;41.02;100704.41;4938710;28;46963;-41
2023/08/26 04:20:55;;;;;;;;;3.00;2.25;;;;;23.43;41.14;100699.94;4938669;28;45654;-41
2023/08/26 04:23:21;;;;;;;;;2.25;2.25;;;;;23.39;41.09;100703.78;4938926;28;45289;-38
2023/08/26 04:25:46;;;;;;;;;64.00;47.75;;;;;23.42;41.00;100705.38;4939141;28;45569;-41
2023/08/26 04:28:14;;;;;;;;;60.25;48.75;;;;;23.43;40.92;100701.75;4921295;28;45487;-39
2023/08/26 04:30:40;;;;;;;;;74.25;60.50;;;;;23.44;41.12;100701.66;4938407;28;45179;-43
2023/08/26 04:33:06;;;;;;;;;75.75;61.25;;;;;23.43;40.58;100699.94;4938488;28;45367;-39
2023/08/26 04:35:34;;;;;;;;;72.25;57.25;;;;;23.45;41.23;100694.56;4938748;28;45880;-47
2023/08/26 04:38:00;;;;;;;;;57.75;44.00;;;;;23.45;40.79;100692.75;4938348;28;46837;-45
2023/08/26 04:40:25;;;;;;;;;56.50;44.25;;;;;23.41;41.13;100693.94;4938198;28;45338;-47
2023/08/26 04:42:53;;;;;;;;;63.67;49.00;;;;;23.43;40.95;100704.41;4938517;28;45299;-48
2023/08/26 04:45:19;;;;;;;;;75.25;62.75;;;;;23.42;41.08;100703.59;4938717;28;45540;-46
2023/08/26 04:47:44;;;;;;;;;83.25;71.75;;;;;23.42;41.53;100703.59;4938171;28;45566;-43
2023/08/26 04:50:11;;;;;;;;;67.00;51.75;;;;;23.45;41.46;100694.56;4938146;28;45463;-43
2023/08/26 04:52:38;;;;;;;;;68.75;53.50;;;;;23.43;41.49;100689.38;4938176;28;45354;-40
2023/08/26 04:55:04;;;;;;;;;55.25;41.50;;;;;23.49;41.56;100703.13;4938246;28;45370;-46
2023/08/26 04:57:29;;;;;;;;;48.00;36.50;;;;;23.52;41.38;100697.63;4938047;28;45332;-47
2023/08/26 04:59:54;;;;;;;;;39.75;32.25;;;;;23.50;41.61;100704.81;4938144;28;45365;-45
2023/08/26 05:02:20;;;;;;;;;20.00;19.00;;;;;23.49;41.38;100708.44;4938242;28;45204;-48
2023/08/26 05:04:45;;;;;;;;;26.67;20.00;;;;;23.45;41.49;100706.00;4937922;28;50698;-44
2023/08/26 05:07:10;;;;;;;;;11.25;9.25;;;;;23.43;41.78;100715.00;4937867;28;46108;-45
2023/08/26 05:09:36;;;;;;;;;17.25;17.25;;;;;23.41;41.77;100723.03;4937863;28;45346;-50
2023/08/26 05:12:01;;;;;;;;;12.50;11.50;;;;;23.39;42.17;100724.09;4939696;28;45241;-44
2023/08/26 05:14:26;;;;;;;;;16.25;13.00;;;;;23.36;41.92;100726.97;4944499;28;45592;-43
2023/08/26 05:16:52;;;;;;;;;16.50;14.75;;;;;23.38;41.84;100722.38;4944156;28;57465;-42
2023/08/26 05:19:17;;;;;;;;;12.67;12.33;;;;;23.38;42.00;100727.66;4943646;28;61915;-48
2023/08/26 05:21:42;;;;;;;;;10.00;7.50;;;;;23.36;41.98;100733.06;4944228;28;45408;-44
2023/08/26 05:24:08;;;;;;;;;14.25;11.75;;;;;23.36;42.17;100724.31;4944266;28;45470;-44
2023/08/26 05:26:33;;;;;;;;;9.50;9.00;;;;;23.37;41.82;100731.31;4944109;28;45338;-46
2023/08/26 05:28:59;;;;;;;;;8.50;8.00;;;;;23.37;41.88;100731.31;4944190;28;45428;-45
2023/08/26 05:31:24;;;;;;;;;11.25;10.00;;;;;23.39;41.80;100730.22;4944337;28;45981;-47
2023/08/26 05:33:50;;;;;;;;;10.25;6.00;;;;;23.40;41.93;100742.50;4944500;28;45317;-41
2023/08/26 05:36:15;;;;;;;;;6.75;4.25;;;;;23.39;41.75;100738.16;4944076;28;45648;-40
2023/08/26 05:38:40;;;;;;;;;7.75;4.25;;;;;23.38;41.99;100736.47;4943534;28;55994;-40
2023/08/26 05:41:06;;;;;;;;;2.00;2.00;;;;;23.31;41.97;100716.69;4943890;28;49769;-41
2023/08/26 05:43:31;;;;;;;;;6.75;4.00;;;;;23.31;42.15;100722.81;4944320;28;45286;-47
2023/08/26 05:45:57;;;;;;;;;3.00;2.00;;;;;23.29;41.83;100713.31;4943916;28;46953;-41
2023/08/26 05:48:22;;;;;;;;;3.00;1.75;;;;;23.28;42.25;100727.47;4944258;28;45362;-40
2023/08/26 05:50:47;;;;;;;;;1.25;1.25;;;;;23.28;42.28;100727.47;4944125;28;45377;-41
2023/08/26 05:53:13;;;;;;;;;1.50;1.50;;;;;23.23;42.14;100719.00;4944043;28;45329;-40
2023/08/26 05:55:41;;;;;;;;;1.00;1.00;;;;;23.21;41.86;100720.91;4943700;28;46282;-41
2023/08/26 05:58:06;;;;;;;;;0.00;0.00;;;;;23.17;42.24;100718.47;4944023;28;45646;-43
2023/08/26 06:00:31;;;;;;;;;1.25;0.75;;;;;23.16;42.03;100718.53;4944023;28;45306;-42
2023/08/26 06:02:57;;;;;;;;;1.50;1.00;;;;;23.15;42.63;100717.72;4943899;28;45564;-42
2023/08/26 06:05:22;;;;;;;;;0.25;0.25;;;;;23.15;42.41;100733.56;4943832;28;49215;-44
2023/08/26 06:07:49;;;;;;;;;1.00;1.00;;;;;23.12;42.49;100732.94;4943677;28;45419;-40
2023/08/26 06:10:15;;;;;;;;;1.00;1.00;;;;;23.08;42.55;100727.03;4926925;28;45350;-40
2023/08/26 06:12:41;;;;;;;;;2.50;2.00;;;;;23.08;42.66;100729.66;4943926;28;45628;-40
2023/08/26 06:15:06;;;;;;;;;1.50;1.00;;;;;23.07;42.59;100738.53;4943470;28;45580;-41
2023/08/26 06:17:34;;;;;;;;;2.00;2.00;;;;;23.06;42.41;100731.56;4926450;28;45351;-40
2023/08/26 06:19:59;;;;;;;;;1.00;1.00;;;;;23.05;42.40;100739.56;4943777;28;45480;-46
2023/08/26 06:22:25;;;;;;;;;2.50;1.25;;;;;23.05;42.49;100727.22;4944319;28;45596;-45
2023/08/26 06:24:50;;;;;;;;;0.75;0.75;;;;;23.06;42.78;100741.28;4939226;28;66104;-42
2023/08/26 06:27:15;;;;;;;;;1.25;1.25;;;;;23.06;42.85;100739.50;4940245;28;48049;-42
2023/08/26 06:29:45;;;;;;;;;3.00;2.00;;;;;23.05;42.27;100740.44;4940337;28;45359;-42
2023/08/26 06:32:10;;;;;;;;;3.00;3.00;;;;;23.06;42.58;100736.84;4940690;28;45425;-47
2023/08/26 06:34:36;;;;;;;;;4.00;2.00;;;;;23.07;42.28;100733.25;4940170;28;45439;-51
2023/08/26 06:37:02;;;;;;;;;1.75;1.75;;;;;23.07;42.50;100725.34;4939662;28;56642;-46
2023/08/26 06:39:27;;;;;;;;;1.00;1.00;;;;;23.08;42.45;100728.81;4940751;28;45382;-42
2023/08/26 06:41:53;;;;;;;;;1.50;1.00;;;;;23.05;42.46;100727.22;4940543;28;45323;-44
2023/08/26 06:44:18;;;;;;;;;1.00;1.00;;;;;23.03;42.38;100723.84;4939231;28;70811;-39
2023/08/26 06:46:43;;;;;;;;;1.00;1.00;;;;;23.06;42.52;100738.63;4939460;28;63612;-49
2023/08/26 06:49:09;;;;;;;;;0.00;0.00;;;;;23.04;43.01;100720.25;4940200;28;45443;-45
2023/08/26 06:51:35;;;;;;;;;2.00;0.25;;;;;23.00;42.91;100718.75;4940284;28;45231;-46
2023/08/26 06:54:00;;;;;;;;;0.00;0.00;;;;;22.98;42.53;100725.97;4940082;28;46183;-46
2023/08/26 06:56:25;;;;;;;;;0.00;0.00;;;;;23.00;42.95;100713.47;4940155;28;45289;-47
2023/08/26 06:58:52;;;;;;;;;0.00;0.00;;;;;23.02;42.80;100722.13;4939788;28;50170;-39
2023/08/26 07:01:17;;;;;;;;;1.00;1.00;;;;;23.03;42.52;100720.34;4940195;28;45512;-44
2023/08/26 07:03:43;;;;;;;;;1.00;1.00;;;;;23.01;42.80;100721.31;4939579;28;46263;-44
2023/08/26 07:06:08;;;;;;;;;0.25;0.25;;;;;23.01;42.82;100723.09;4939306;28;60070;-40
2023/08/26 07:08:33;;;;;;;;;0.00;0.00;;;;;23.02;42.83;100722.13;4940887;28;45338;-45
2023/08/26 07:10:59;;;;;;;;;0.50;0.00;;;;;23.02;42.76;100722.13;4958986;28;45257;-39
2023/08/26 07:13:24;;;;;;;;;0.00;0.00;;;;;23.03;42.97;100721.19;4958087;28;49327;-39
2023/08/26 07:15:52;;;;;;;;;1.50;0.25;;;;;23.06;42.62;100718.34;4958053;28;45277;-40
2023/08/26 07:18:17;;;;;;;;;0.25;0.25;;;;;23.10;42.62;100717.16;4958340;28;45358;-40
2023/08/26 07:20:44;;;;;;;;;1.75;1.00;;;;;23.13;42.79;100721.41;4958096;28;45279;-41
2023/08/26 07:23:09;;;;;;;;;1.00;1.00;;;;;23.15;42.86;100717.72;4948709;28;47529;-37
2023/08/26 07:25:34;;;;;;;;;0.00;0.00;;;;;23.20;43.00;100719.25;4958174;28;45337;-41
2023/08/26 07:28:00;;;;;;;;;0.25;0.25;;;;;23.24;42.60;100720.69;4958211;28;54148;-38
2023/08/26 07:30:26;;;;;;;;;0.00;0.00;;;;;23.23;42.88;100717.22;4958373;28;45245;-39
2023/08/26 07:32:52;;;;;;;;;0.00;0.00;;;;;23.23;43.06;100714.59;4958792;28;45988;-41
2023/08/26 07:35:18;;;;;;;;;0.00;0.00;;;;;23.23;42.89;100713.72;4958411;28;45433;-42
2023/08/26 07:37:43;;;;;;;;;1.00;1.00;;;;;23.22;42.55;100714.66;4958939;28;45362;-42
2023/08/26 07:40:14;;;;;;;;;0.00;0.00;;;;;23.24;42.97;100715.41;4958790;28;45211;-45
2023/08/26 07:42:40;;;;;;;;;1.00;0.00;;;;;23.27;43.12;100710.75;4958546;28;47102;-42
2023/08/26 07:45:05;;;;;;;;;1.00;0.75;;;;;23.30;43.08;100715.84;4958660;28;45310;-41
2023/08/26 07:47:31;;;;;;;;;0.00;0.00;;;;;23.34;42.70;100715.63;4959067;28;45440;-40
2023/08/26 07:49:56;;;;;;;;;0.50;0.50;;;;;23.38;42.52;100717.09;4958797;28;45285;-41
2023/08/26 07:52:21;;;;;;;;;1.00;0.00;;;;;23.41;42.70;100722.19;4957097;28;46832;-41
2023/08/26 07:54:47;;;;;;;;;0.00;0.00;;;;;23.42;43.04;100722.09;4957050;28;45914;-42
2023/08/26 07:57:12;;;;;;;;;0.00;0.00;;;;;23.43;42.72;100726.41;4958606;28;45313;-40
2023/08/26 07:59:38;;;;;;;;;0.50;0.00;;;;;23.41;42.68;100730.13;4958213;28;45350;-42
2023/08/26 08:02:03;;;;;;;;;0.00;0.00;;;;;23.40;42.96;100723.13;4957762;28;46013;-41
2023/08/26 08:04:28;;;;;;;;;0.00;0.00;;;;;23.41;42.75;100732.75;4957794;28;45482;-41
2023/08/26 08:06:54;;;;;;;;;0.67;0.33;;;;;23.43;42.91;100736.97;4957103;28;60732;-41
2023/08/26 08:09:19;;;;;;;;;0.00;0.00;;;;;23.45;42.73;100734.25;4948598;28;45385;-43
2023/08/26 08:11:44;;;;;;;;;0.00;0.00;;;;;23.44;43.07;100738.69;4957323;28;50136;-43
2023/08/26 08:14:10;;;;;;;;;1.00;1.00;;;;;23.42;43.28;100745.91;4956745;28;63741;-42
2023/08/26 08:16:35;;;;;;;;;0.00;0.00;;;;;23.38;43.05;100733.81;4957602;28;45384;-41
2023/08/26 08:19:00;;;;;;;;;0.00;0.00;;;;;23.43;43.17;100752.03;4958641;28;45240;-41
2023/08/26 08:21:25;;;;;;;;;1.00;1.00;;;;;23.46;43.11;100751.81;4957292;28;66490;-39
2023/08/26 08:23:51;;;;;;;;;0.00;0.00;;;;;23.49;43.29;100758.69;4957650;28;56276;-44
2023/08/26 08:26:16;;;;;;;;;1.50;0.25;;;;;23.55;43.64;100771.47;4957652;28;52914;-44
2023/08/26 08:28:42;;;;;;;;;1.00;0.00;;;;;23.58;42.84;100763.34;4958054;28;45552;-46
2023/08/26 08:31:08;;;;;;;;;1.00;0.00;;;;;23.60;42.97;100764.06;4957915;28;46507;-47
2023/08/26 08:33:34;;;;;;;;;0.25;0.25;;;;;23.63;43.10;100769.16;4958089;28;45384;-43
2023/08/26 08:36:00;;;;;;;;;0.75;0.75;;;;;23.63;42.85;100764.69;4957924;28;45448;-47
2023/08/26 08:38:26;;;;;;;;;0.00;0.00;;;;;23.66;43.44;100765.44;4957989;28;45310;-45
2023/08/26 08:40:51;;;;;;;;;4.25;1.00;;;;;23.67;43.13;100759.19;4957775;28;46885;-48
2023/08/26 08:43:19;;;;;;;;;2.00;0.00;;;;;23.66;43.62;100758.34;4957780;28;45457;-43
2023/08/26 08:45:45;;;;;;;;;1.00;1.00;;;;;23.65;43.64;100754.00;4957817;28;45284;-40
2023/08/26 08:48:10;;;;;;;;;2.00;1.00;;;;;23.64;43.13;100762.91;4957281;28;45277;-47
2023/08/26 08:50:36;;;;;;;;;1.00;0.00;;;;;23.60;43.58;100770.19;4957903;28;45342;-41
2023/08/26 08:53:02;;;;;;;;;2.00;0.00;;;;;23.58;43.48;100771.25;4957613;28;45446;-39
2023/08/26 08:55:28;;;;;;;;;2.00;0.00;;;;;23.61;43.46;100771.06;4957689;28;45413;-47
2023/08/26 08:57:55;;;;;;;;;0.25;0.25;;;;;23.66;43.58;100774.22;4957918;28;45274;-46
2023/08/26 09:00:23;;;;;;;;;0.00;0.00;;;;;23.69;43.46;100773.19;4956743;28;68712;-39
2023/08/26 09:02:52;;;;;;;;;1.00;1.00;;;;;23.72;43.43;100767.66;4957308;28;45291;-41
2023/08/26 09:05:19;;;;;;;;;0.50;0.50;;;;;23.72;42.93;100765.88;4957638;28;45402;-41
2023/08/26 09:07:46;;;;;;;;;1.00;0.00;;;;;23.72;43.30;100767.66;4957836;28;45547;-40
2023/08/26 09:10:11;;;;;;;;;0.00;0.00;;;;;23.74;42.84;100771.91;4957265;28;45394;-41
2023/08/26 09:12:38;;;;;;;;;1.00;1.00;;;;;23.80;43.11;100777.69;4957763;28;45284;-39
2023/08/26 09:15:04;;;;;;;;;1.00;1.00;;;;;23.80;43.29;100770.63;4957624;28;45954;-41
2023/08/26 09:17:30;;;;;;;;;1.00;1.00;;;;;23.78;42.88;100768.06;4957646;28;45615;-42
2023/08/26 09:20:00;;;;;;;;;1.75;1.00;;;;;23.80;43.13;100775.91;4957296;28;46024;-41
2023/08/26 09:22:31;;;;;;;;;0.75;0.00;;;;;23.78;42.63;100762.78;4957222;28;45230;-42
2023/08/26 09:25:03;;;;;;;;;0.00;0.00;;;;;23.78;42.60;100773.38;4957357;28;45322;-43
2023/08/26 09:27:28;;;;;;;;;0.75;0.75;;;;;23.75;42.76;100773.59;4957572;28;45368;-47
2023/08/26 09:29:54;;;;;;;;;0.50;0.50;;;;;23.73;42.82;100785.22;4957142;28;45926;-43
2023/08/26 09:32:40;;;;;;;;;0.00;0.00;;;;;23.68;42.66;100780.25;4957239;28;45813;-48
2023/08/26 09:35:12;;;;;;;;;0.75;0.75;;;;;23.65;42.87;100788.41;4957502;28;45380;-43
2023/08/26 09:37:38;;;;;;;;;0.25;0.00;;;;;23.63;42.51;100787.69;4957756;28;45341;-40
2023/08/26 09:40:04;;;;;;;;;0.25;0.25;;;;;23.59;42.99;100786.19;4956948;28;45540;-39
2023/08/26 09:42:30;;;;;;;;;1.25;1.00;;;;;23.56;42.99;100787.25;4957044;28;45198;-39
2023/08/26 09:44:56;;;;;;;;;3.50;0.50;;;;;23.55;42.87;100776.75;4956989;28;45542;-39
2023/08/26 09:47:22;;;;;;;;;0.00;0.00;;;;;23.58;43.24;100771.25;4957342;28;45536;-40
2023/08/26 09:49:50;;;;;;;;;1.00;0.00;;;;;23.61;42.49;100771.06;4956943;28;45408;-40
2023/08/26 09:52:15;;;;;;;;;0.25;0.25;;;;;23.62;42.47;100772.75;4956947;28;45551;-40
2023/08/26 09:54:44;;;;;;;;;1.75;1.00;;;;;23.61;42.76;100768.41;4956956;28;45267;-39
2023/08/26 09:57:11;;;;;;;;;0.25;0.25;;;;;23.62;42.74;100767.47;4957529;28;45377;-40
2023/08/26 09:59:37;;;;;;;;;0.25;0.25;;;;;23.66;42.54;100763.63;4958461;28;46206;-41
2023/08/26 10:02:04;;;;;;;;;0.00;0.00;;;;;23.71;42.01;100760.66;4960220;28;45307;-43
2023/08/26 10:04:35;;;;;;;;;0.00;0.00;;;;;23.73;42.11;100759.63;4960296;28;45421;-46
2023/08/26 10:07:01;;;;;;;;;0.75;0.00;;;;;23.78;42.70;100761.94;4960024;28;45359;-40
2023/08/26 10:09:29;;;;;;;;;0.00;0.00;;;;;23.82;41.95;100757.28;4959997;28;45306;-40
2023/08/26 10:11:55;;;;;;;;;1.75;1.00;;;;;23.85;41.93;100752.59;4960029;28;45912;-41
2023/08/26 10:14:24;;;;;;;;;0.00;0.00;;;;;23.88;42.48;100755.03;4960181;28;45383;-40
2023/08/26 10:16:50;;;;;;;;;0.25;0.25;;;;;23.92;42.31;100761.78;4960162;28;45433;-43
2023/08/26 10:19:16;;;;;;;;;0.00;0.00;;;;;23.99;41.60;100764.88;4959799;28;46086;-44
2023/08/26 10:21:43;;;;;;;;;0.00;0.00;;;;;24.04;41.71;100748.66;4960143;28;45343;-39
2023/08/26 10:24:08;;;;;;;;;0.00;0.00;;;;;24.07;41.62;100757.25;4960354;28;45397;-43
2023/08/26 10:26:34;;;;;;;;;0.00;0.00;;;;;24.10;41.33;100756.19;4960153;28;45425;-40
2023/08/26 10:29:00;;;;;;;;;0.00;0.00;;;;;24.16;41.81;100750.44;4959663;28;46390;-40
2023/08/26 10:31:35;;;;;;;;;0.00;0.00;;;;;24.20;41.72;100745.75;4959718;28;45402;-41
2023/08/26 10:34:13;;;;;;;;;1.00;0.00;;;;;24.24;41.37;100747.22;4959801;28;45262;-40
2023/08/26 10:36:46;;;;;;;;;0.00;0.00;;;;;24.27;41.87;100762.91;4960342;28;45324;-39
2023/08/26 10:39:16;;;;;;;;;1.00;1.00;;;;;24.27;41.53;100762.91;4959514;28;46669;-39
2023/08/26 10:42:14;;;;;;;;;0.75;0.75;;;;;24.30;41.45;100751.25;4960043;28;45368;-42
2023/08/26 10:44:41;;;;;;;;;0.00;0.00;;;;;24.31;40.86;100748.47;4959801;28;45344;-45
2023/08/26 10:47:08;;;;;;;;;0.00;0.00;;;;;24.34;41.46;100760.66;4959802;28;45571;-45
2023/08/26 10:49:37;;;;;;;;;0.25;0.25;;;;;24.36;40.97;100756.94;4959477;28;46089;-39
2023/08/26 10:52:14;;;;;;;;;0.00;0.00;;;;;24.39;40.84;100747.91;4959412;28;45658;-46
2023/08/26 10:54:45;;;;;;;;;0.25;0.25;;;;;24.42;40.77;100749.50;4959865;28;45409;-41
2023/08/26 10:57:10;;;;;;;;;0.00;0.00;;;;;24.43;41.27;100748.53;4959997;28;45351;-43
2023/08/26 10:59:37;;;;;;;;;1.00;1.00;;;;;24.44;40.97;100742.28;4959177;28;46942;-42
2023/08/26 11:02:07;;;;;;;;;0.75;0.75;;;;;24.43;40.30;100737.94;4959034;28;45319;-39
2023/08/26 11:04:42;;;;;;;;;0.00;0.00;;;;;24.42;40.32;100728.31;4959379;28;45260;-41
2023/08/26 11:07:14;;;;;;;;;0.50;0.50;;;;;24.43;40.55;100729.97;4959494;28;45354;-40
2023/08/26 11:09:40;;;;;;;;;0.00;0.00;;;;;24.43;40.31;100725.53;4958436;28;46016;-47
2023/08/26 11:12:23;;;;;;;;;1.00;1.00;;;;;24.44;40.28;100727.25;4959240;28;45690;-43
2023/08/26 11:14:48;;;;;;;;;0.00;0.00;;;;;24.45;40.41;100717.47;4959182;28;45372;-43
2023/08/26 11:17:13;;;;;;;;;1.00;0.00;;;;;24.47;41.07;100715.56;4959044;28;57185;-39
2023/08/26 11:19:39;;;;;;;;;0.00;0.00;;;;;24.47;40.54;100718.22;4958922;28;45327;-42
2023/08/26 11:22:04;;;;;;;;;1.00;1.00;;;;;24.50;40.45;100720.63;4959045;28;45411;-40